createdAt,value
2023-01-02T00:00:07.614Z,95856
2023-01-02T00:01:10.340Z,95853
2023-01-02T00:02:12.606Z,95856
2023-01-02T00:03:15.771Z,95861
2023-01-02T00:04:18.225Z,95856
2023-01-02T00:05:20.469Z,95865.4
2023-01-02T00:06:22.965Z,95866.9
2023-01-02T00:07:25.213Z,95865.1
2023-01-02T00:08:27.447Z,95867.8
2023-01-02T00:09:29.675Z,95869.5
2023-01-02T00:10:32.188Z,95862.1
2023-01-02T00:11:34.167Z,95865.1
2023-01-02T00:12:36.739Z,95859.1
2023-01-02T00:13:39.137Z,95852.8
2023-01-02T00:14:41.644Z,95859.4
2023-01-02T00:15:44.189Z,95859
2023-01-02T00:16:46.810Z,95858.6
2023-01-02T00:17:49.051Z,95855.3
2023-01-02T00:18:51.288Z,95852.4
2023-01-02T00:19:53.518Z,95855.4
2023-01-02T00:20:56.024Z,95856.1
2023-01-02T00:21:58.544Z,95852.7
2023-01-02T00:23:00.778Z,95852.9
2023-01-02T00:24:03.330Z,95858.6
2023-01-02T00:25:05.890Z,95859
2023-01-02T00:26:08.409Z,95859.7
2023-01-02T00:27:10.924Z,95855.4
2023-01-02T00:28:13.509Z,95859.9
2023-01-02T00:29:16.066Z,95854.8
2023-01-02T00:30:18.603Z,95852.9
2023-01-02T00:31:21.094Z,95857.8
2023-01-02T00:32:23.386Z,95859.3
2023-01-02T00:33:25.623Z,95851.3
2023-01-02T00:34:28.155Z,95847.4
2023-01-02T00:35:30.685Z,95848.8
2023-01-02T00:36:32.925Z,95851.1
2023-01-02T00:37:34.917Z,95848.4
2023-01-02T00:39:42.388Z,95851.3
2023-01-02T00:40:44.604Z,95852.2
2023-01-02T00:41:47.147Z,95850.2
2023-01-02T00:42:49.668Z,95841.8
2023-01-02T00:43:52.398Z,95839.6
2023-01-02T00:44:54.692Z,95843.2
2023-01-02T00:45:57.204Z,95850
2023-01-02T00:46:59.702Z,95845.7
2023-01-02T00:48:02.425Z,95838
2023-01-02T00:49:04.958Z,95839.1
2023-01-02T00:50:07.476Z,95833.9
2023-01-02T00:51:10.116Z,95835.5
2023-01-02T00:52:12.638Z,95834.5
2023-01-02T00:53:14.848Z,95835
2023-01-02T00:54:17.365Z,95833.8
2023-01-02T00:55:19.912Z,95835.2
2023-01-02T00:56:22.440Z,95830.8
2023-01-02T00:57:24.725Z,95835.7
2023-01-02T00:58:27.232Z,95834.4
2023-01-02T00:59:29.912Z,95831.8
2023-01-02T01:00:32.757Z,95831.5
2023-01-02T01:01:36.486Z,95833.5
2023-01-02T01:02:39.911Z,95835.2
2023-01-02T01:03:42.314Z,95825.4
2023-01-02T01:04:44.864Z,95825.3
2023-01-02T01:05:47.382Z,95824.6
2023-01-02T01:06:49.949Z,95824.2
2023-01-02T01:07:52.501Z,95831.5
2023-01-02T01:08:55.001Z,95833.1
2023-01-02T01:09:56.921Z,95833.2
2023-01-02T01:10:59.489Z,95835.1
2023-01-02T01:13:06.992Z,95840.1
2023-01-02T01:14:09.245Z,95850.4
2023-01-02T01:15:11.831Z,95848.7
2023-01-02T01:16:14.750Z,95843.5
2023-01-02T01:17:16.451Z,95838.3
2023-01-02T01:18:18.986Z,95844.3
2023-01-02T01:19:21.485Z,95839.6
2023-01-02T01:20:23.741Z,95837
2023-01-02T01:21:26.253Z,95831.8
2023-01-02T01:22:28.823Z,95826.9
2023-01-02T01:23:45.985Z,95828.2
2023-01-02T01:24:48.508Z,95832.7
2023-01-02T01:25:50.733Z,95834.6
2023-01-02T01:26:53.264Z,95831.4
2023-01-02T01:27:55.825Z,95838.8
2023-01-02T01:28:57.772Z,95842.3
2023-01-02T01:30:00.318Z,95840.2
2023-01-02T01:31:02.650Z,95833.8
2023-01-02T01:32:06.236Z,95833
2023-01-02T01:33:08.763Z,95836
2023-01-02T01:34:11.247Z,95831.4
2023-01-02T01:35:13.838Z,95834.6
2023-01-02T01:36:16.123Z,95834.5
2023-01-02T01:37:18.327Z,95829.4
2023-01-02T01:38:20.830Z,95826.4
2023-01-02T01:39:23.027Z,95825.4
2023-01-02T01:40:25.533Z,95823.3
2023-01-02T01:41:28.059Z,95826
2023-01-02T01:42:29.997Z,95822.1
2023-01-02T01:43:32.209Z,95818
2023-01-02T01:44:34.433Z,95814.3
2023-01-02T01:45:37.150Z,95817.1
2023-01-02T01:46:39.531Z,95821.2
2023-01-02T01:47:42.100Z,95817
2023-01-02T01:48:44.611Z,95819.7
2023-01-02T01:49:47.098Z,95822.2
2023-01-02T01:50:49.600Z,95823.2
2023-01-02T01:51:51.588Z,95817.2
2023-01-02T01:52:53.835Z,95826.3
2023-01-02T01:53:56.350Z,95825.5
2023-01-02T01:54:58.902Z,95832.6
2023-01-02T01:56:01.135Z,95834.5
2023-01-02T01:57:03.101Z,95827.4
2023-01-02T01:58:05.663Z,95831.4
2023-01-02T01:59:08.172Z,95831.5
2023-01-02T02:00:11.056Z,95834.8
2023-01-02T02:01:13.978Z,95837.6
2023-01-02T02:02:17.551Z,95841.4
2023-01-02T02:03:20.931Z,95843.4
2023-01-02T02:04:23.524Z,95844.5
2023-01-02T02:05:26.056Z,95847.1
2023-01-02T02:06:28.559Z,95847.5
2023-01-02T02:07:31.051Z,95845.3
2023-01-02T02:08:33.001Z,95841.8
2023-01-02T02:09:35.224Z,95837.5
2023-01-02T02:10:37.724Z,95837.2
2023-01-02T02:11:40.229Z,95836.7
2023-01-02T02:12:42.444Z,95836.4
2023-01-02T02:13:44.967Z,95840.6
2023-01-02T02:14:47.209Z,95834
2023-01-02T02:15:49.447Z,95834.7
2023-01-02T02:16:52.247Z,95832.3
2023-01-02T02:17:54.368Z,95833.7
2023-01-02T02:18:56.923Z,95831.2
2023-01-02T02:19:59.176Z,95834
2023-01-02T02:21:01.728Z,95838.2
2023-01-02T02:22:04.251Z,95833.9
2023-01-02T02:23:06.464Z,95834
2023-01-02T02:24:08.973Z,95829.3
2023-01-02T02:25:11.462Z,95832.1
2023-01-02T02:26:13.986Z,95835.9
2023-01-02T02:27:16.480Z,95837.8
2023-01-02T02:28:18.684Z,95833.5
2023-01-02T02:29:20.641Z,95830.7
2023-01-02T02:30:23.186Z,95829.6
2023-01-02T02:31:25.935Z,95830.1
2023-01-02T02:32:28.624Z,95828
2023-01-02T02:33:31.218Z,95825.9
2023-01-02T02:34:33.797Z,95830
2023-01-02T02:35:36.366Z,95829.8
2023-01-02T02:36:38.622Z,95833.5
2023-01-02T02:37:41.122Z,95829.2
2023-01-02T02:38:43.627Z,95825.4
2023-01-02T02:39:46.147Z,95812.9
2023-01-02T02:40:48.661Z,95806.4
2023-01-02T02:41:51.184Z,95818.9
2023-01-02T02:42:53.722Z,95814.5
2023-01-02T02:43:55.954Z,95817.9
2023-01-02T02:44:58.487Z,95814.3
2023-01-02T02:46:01.259Z,95816.5
2023-01-02T02:47:03.908Z,95818.8
2023-01-02T02:48:06.136Z,95817.8
2023-01-02T02:49:08.490Z,95811.3
2023-01-02T02:50:11.091Z,95807.8
2023-01-02T02:51:13.647Z,95805.2
2023-01-02T02:52:16.134Z,95806.7
2023-01-02T02:53:18.631Z,95805.9
2023-01-02T02:54:20.856Z,95802.8
2023-01-02T02:55:23.397Z,95798.9
2023-01-02T02:56:25.921Z,95799.6
2023-01-02T02:57:28.156Z,95795.9
2023-01-02T02:58:30.408Z,95797.7
2023-01-02T02:59:32.955Z,95798.8
2023-01-02T03:00:35.206Z,95800.3
2023-01-02T03:01:38.307Z,95793.8
2023-01-02T03:02:41.372Z,95787.9
2023-01-02T03:03:44.109Z,95787.6
2023-01-02T03:04:46.985Z,95785.9
2023-01-02T03:05:49.634Z,95789.4
2023-01-02T03:06:52.160Z,95784.1
2023-01-02T03:07:54.403Z,95786.6
2023-01-02T03:08:56.348Z,95787.2
2023-01-02T03:09:58.603Z,95787.4
2023-01-02T03:11:00.877Z,95782.5
2023-01-02T03:12:03.441Z,95783.3
2023-01-02T03:13:05.993Z,95782.5
2023-01-02T03:14:08.209Z,95780.6
2023-01-02T03:15:10.726Z,95777.7
2023-01-02T03:16:13.545Z,95774.4
2023-01-02T03:17:15.891Z,95774.9
2023-01-02T03:18:18.403Z,95771.2
2023-01-02T03:19:20.912Z,95772.5
2023-01-02T03:20:23.488Z,95770.2
2023-01-02T03:22:31.048Z,95766
2023-01-02T03:23:33.574Z,95768.7
2023-01-02T03:24:36.083Z,95767.2
2023-01-02T03:25:38.322Z,95766.5
2023-01-02T03:26:40.891Z,95760.5
2023-01-02T03:27:43.389Z,95761.8
2023-01-02T03:28:45.929Z,95760
2023-01-02T03:29:48.234Z,95755.3
2023-01-02T03:30:51.044Z,95754.6
2023-01-02T03:31:53.587Z,95754.6
2023-01-02T03:32:56.096Z,95759.1
2023-01-02T03:33:58.640Z,95758.5
2023-01-02T03:35:00.631Z,95757.7
2023-01-02T03:36:03.224Z,95760.3
2023-01-02T03:37:05.791Z,95755.3
2023-01-02T03:38:08.321Z,95759.7
2023-01-02T03:39:10.573Z,95756.4
2023-01-02T03:40:13.066Z,95756.1
2023-01-02T03:41:15.303Z,95752.2
2023-01-02T03:42:17.511Z,95753.2
2023-01-02T03:43:20.052Z,95754.5
2023-01-02T03:44:22.558Z,95752.4
2023-01-02T03:45:25.091Z,95754.1
2023-01-02T03:46:27.816Z,95755.3
2023-01-02T03:47:30.381Z,95750.3
2023-01-02T03:48:32.629Z,95750.5
2023-01-02T03:49:35.146Z,95749.7
2023-01-02T03:50:37.649Z,95745.4
2023-01-02T03:51:40.240Z,95744.9
2023-01-02T03:52:42.792Z,95743.9
2023-01-02T03:53:45.021Z,95741.3
2023-01-02T03:54:46.969Z,95740.3
2023-01-02T03:55:49.499Z,95746.1
2023-01-02T03:56:52.018Z,95741.4
2023-01-02T03:58:59.258Z,95747.2
2023-01-02T04:00:01.255Z,95745.5
2023-01-02T04:01:03.980Z,95742.8
2023-01-02T04:02:07.133Z,95750.1
2023-01-02T04:03:10.272Z,95745.3
2023-01-02T04:04:12.278Z,95741.1
2023-01-02T04:05:14.834Z,95743.4
2023-01-02T04:06:16.819Z,95743.9
2023-01-02T04:07:19.394Z,95742
2023-01-02T04:08:21.953Z,95742.9
2023-01-02T04:09:23.921Z,95749
2023-01-02T04:10:26.516Z,95747.3
2023-01-02T04:11:29.007Z,95750.1
2023-01-02T04:12:31.226Z,95744.4
2023-01-02T04:13:33.181Z,95743.7
2023-01-02T04:14:35.439Z,95743.9
2023-01-02T04:15:38.168Z,95748
2023-01-02T04:16:40.709Z,95752.5
2023-01-02T04:17:42.962Z,95748.6
2023-01-02T04:19:50.162Z,95753.8
2023-01-02T04:20:52.413Z,95755.1
2023-01-02T04:21:54.660Z,95754.7
2023-01-02T04:22:57.247Z,95754.8
2023-01-02T04:23:59.777Z,95753.6
2023-01-02T04:25:02.298Z,95749.6
2023-01-02T04:26:04.587Z,95747.4
2023-01-02T04:27:06.274Z,95746.6
2023-01-02T04:28:08.533Z,95753.1
2023-01-02T04:29:11.068Z,95750.8
2023-01-02T04:30:13.084Z,95755.5
2023-01-02T04:31:15.982Z,95757
2023-01-02T04:32:18.421Z,95757
2023-01-02T04:33:20.907Z,95755.6
2023-01-02T04:34:23.443Z,95762
2023-01-02T04:35:25.389Z,95763.3
2023-01-02T04:36:27.664Z,95762.9
2023-01-02T04:37:29.892Z,95766.6
2023-01-02T04:38:32.513Z,95760.9
2023-01-02T04:39:35.164Z,95761.3
2023-01-02T04:40:37.103Z,95764.1
2023-01-02T04:41:39.591Z,95759
2023-01-02T04:42:41.835Z,95763.8
2023-01-02T04:43:44.392Z,95760.7
2023-01-02T04:44:46.978Z,95760.3
2023-01-02T04:45:49.506Z,95761.1
2023-01-02T04:46:52.023Z,95760.1
2023-01-02T04:47:54.534Z,95754.2
2023-01-02T04:48:57.073Z,95757.8
2023-01-02T04:49:59.591Z,95756.9
2023-01-02T04:51:01.909Z,95756.8
2023-01-02T04:52:03.850Z,95752.6
2023-01-02T04:53:06.422Z,95759.2
2023-01-02T04:54:08.818Z,95758.5
2023-01-02T04:55:11.493Z,95759.4
2023-01-02T04:56:13.458Z,95756.1
2023-01-02T04:57:15.737Z,95759.2
2023-01-02T04:58:18.247Z,95756.5
2023-01-02T04:59:20.740Z,95753.8
2023-01-02T05:00:23.240Z,95755.7
2023-01-02T05:01:26.402Z,95757.8
2023-01-02T05:02:29.507Z,95757.9
2023-01-02T05:03:32.517Z,95758.8
2023-01-02T05:04:35.193Z,95759
2023-01-02T05:05:37.730Z,95762.4
2023-01-02T05:06:40.236Z,95764.5
2023-01-02T05:07:42.520Z,95766
2023-01-02T05:08:44.500Z,95765.9
2023-01-02T05:09:46.911Z,95766.6
2023-01-02T05:10:49.532Z,95762.5
2023-01-02T05:11:52.043Z,95766.8
2023-01-02T05:12:54.565Z,95766
2023-01-02T05:13:59.101Z,95768.4
2023-01-02T05:15:03.540Z,95771.2
2023-01-02T05:16:06.415Z,95769.9
2023-01-02T05:17:08.496Z,95768.2
2023-01-02T05:18:11.018Z,95764.7
2023-01-02T05:19:13.545Z,95761
2023-01-02T05:20:14.955Z,95761.2
2023-01-02T05:21:17.472Z,95756.9
2023-01-02T05:22:19.697Z,95760.8
2023-01-02T05:23:22.207Z,95759.3
2023-01-02T05:24:24.723Z,95765.1
2023-01-02T05:25:27.705Z,95761.1
2023-01-02T05:26:30.357Z,95761.9
2023-01-02T05:27:32.634Z,95764
2023-01-02T05:29:40.102Z,95762.7
2023-01-02T05:30:42.630Z,95763.3
2023-01-02T05:31:45.353Z,95765.9
2023-01-02T05:32:47.857Z,95768.2
2023-01-02T05:33:50.504Z,95764.3
2023-01-02T05:34:53.008Z,95762.9
2023-01-02T05:35:55.506Z,95761
2023-01-02T05:36:58.009Z,95761.5
2023-01-02T05:38:00.542Z,95765.8
2023-01-02T05:39:03.168Z,95762.4
2023-01-02T05:40:05.436Z,95756.7
2023-01-02T05:41:07.835Z,95758
2023-01-02T05:42:10.384Z,95762
2023-01-02T05:43:12.620Z,95757
2023-01-02T05:44:15.174Z,95757
2023-01-02T05:45:17.413Z,95756.2
2023-01-02T05:46:20.254Z,95758.5
2023-01-02T05:47:22.601Z,95757.8
2023-01-02T05:48:25.106Z,95760.7
2023-01-02T05:49:27.607Z,95762.6
2023-01-02T05:50:29.859Z,95769
2023-01-02T05:51:32.352Z,95773.2
2023-01-02T05:52:36.623Z,95772.5
2023-01-02T05:53:41.321Z,95773.6
2023-01-02T05:54:43.858Z,95771.5
2023-01-02T05:55:46.100Z,95772.9
2023-01-02T05:56:48.411Z,95785.7
2023-01-02T05:57:51.059Z,95793.4
2023-01-02T05:58:53.277Z,95801.7
2023-01-02T05:59:55.779Z,95801
2023-01-02T06:00:57.996Z,95805.1
2023-01-02T06:02:01.237Z,95799.5
2023-01-02T06:03:04.698Z,95802.3
2023-01-02T06:04:06.843Z,95808
2023-01-02T06:05:08.798Z,95814.1
2023-01-02T06:06:11.515Z,95822.4
2023-01-02T06:07:14.029Z,95822.8
2023-01-02T06:08:16.246Z,95817.9
2023-01-02T06:09:18.750Z,95818.4
2023-01-02T06:10:20.704Z,95813.4
2023-01-02T06:11:22.921Z,95820.3
2023-01-02T06:12:25.646Z,95815.6
2023-01-02T06:13:28.291Z,95814
2023-01-02T06:14:30.548Z,95815
2023-01-02T06:15:32.771Z,95810.8
2023-01-02T06:16:35.514Z,95809.3
2023-01-02T06:17:38.119Z,95806
2023-01-02T06:18:40.684Z,95804.1
2023-01-02T06:20:49.162Z,95800.7
2023-01-02T06:21:51.470Z,95796.1
2023-01-02T06:22:53.994Z,95802.6
2023-01-02T06:23:56.518Z,95797.4
2023-01-02T06:24:59.049Z,95803.2
2023-01-02T06:26:01.274Z,95804.5
2023-01-02T06:27:03.318Z,95800.3
2023-01-02T06:28:05.920Z,95802.9
2023-01-02T06:29:08.312Z,95807
2023-01-02T06:30:10.685Z,95802.9
2023-01-02T06:31:13.188Z,95798.3
2023-01-02T06:32:15.853Z,95799
2023-01-02T06:33:18.186Z,95804.4
2023-01-02T06:34:20.699Z,95810.4
2023-01-02T06:35:23.223Z,95809.5
2023-01-02T06:36:25.479Z,95800.9
2023-01-02T06:37:27.423Z,95804.2
2023-01-02T06:38:29.708Z,95802.1
2023-01-02T06:39:32.252Z,95796.1
2023-01-02T06:40:34.798Z,95797.2
2023-01-02T06:41:37.066Z,95802.7
2023-01-02T06:42:39.276Z,95799.6
2023-01-02T06:43:41.961Z,95797.9
2023-01-02T06:44:44.660Z,95799.7
2023-01-02T06:45:47.401Z,95801.3
2023-01-02T06:46:49.704Z,95796.4
2023-01-02T06:47:52.229Z,95799.5
2023-01-02T06:48:54.722Z,95800.2
2023-01-02T06:49:56.652Z,95797.4
2023-01-02T06:50:58.883Z,95796.1
2023-01-02T06:52:01.440Z,95799.8
2023-01-02T06:53:03.977Z,95798.8
2023-01-02T06:54:06.519Z,95802.7
2023-01-02T06:55:08.742Z,95800.5
2023-01-02T06:56:11.312Z,95800.5
2023-01-02T06:57:13.820Z,95800.5
2023-01-02T06:59:21.436Z,95800.2
2023-01-02T07:00:23.742Z,95803.4
2023-01-02T07:01:26.824Z,95803.4
2023-01-02T07:02:29.849Z,95802.5
2023-01-02T07:03:32.520Z,95801.8
2023-01-02T07:04:34.816Z,95803.5
2023-01-02T07:05:37.061Z,95801.6
2023-01-02T07:06:39.315Z,95804
2023-01-02T07:07:41.872Z,95797.7
2023-01-02T07:08:43.390Z,95799.2
2023-01-02T07:09:45.975Z,95800.2
2023-01-02T07:11:53.476Z,95801
2023-01-02T07:12:55.977Z,95797.8
2023-01-02T07:13:58.530Z,95793.8
2023-01-02T07:15:00.864Z,95796.5
2023-01-02T07:16:03.672Z,95796
2023-01-02T07:17:06.023Z,95799.7
2023-01-02T07:18:08.262Z,95799.2
2023-01-02T07:19:10.503Z,95798.6
2023-01-02T07:20:12.195Z,95799.8
2023-01-02T07:21:14.461Z,95801.5
2023-01-02T07:22:16.709Z,95807.8
2023-01-02T07:23:18.913Z,95814.4
2023-01-02T07:24:20.845Z,95818.8
2023-01-02T07:25:23.381Z,95821.6
2023-01-02T07:26:25.344Z,95814.6
2023-01-02T07:27:27.892Z,95823.2
2023-01-02T07:28:30.422Z,95829.8
2023-01-02T07:29:32.661Z,95824.5
2023-01-02T07:30:34.986Z,95828
2023-01-02T07:31:37.441Z,95826.6
2023-01-02T07:32:39.584Z,95828.9
2023-01-02T07:33:42.132Z,95828.2
2023-01-02T07:34:44.716Z,95826.5
2023-01-02T07:35:46.397Z,95826.4
2023-01-02T07:36:48.906Z,95823
2023-01-02T07:37:51.146Z,95823.2
2023-01-02T07:38:53.694Z,95821.3
2023-01-02T07:39:55.385Z,95823.6
2023-01-02T07:40:57.904Z,95820.9
2023-01-02T07:42:00.148Z,95821.5
2023-01-02T07:43:02.115Z,95821.5
2023-01-02T07:44:04.385Z,95818.7
2023-01-02T07:45:06.909Z,95815.7
2023-01-02T07:46:09.759Z,95812.8
2023-01-02T07:47:12.372Z,95815.4
2023-01-02T07:48:14.897Z,95812.8
2023-01-02T07:49:17.440Z,95810.4
2023-01-02T07:50:19.692Z,95808.9
2023-01-02T07:52:27.189Z,95808.6
2023-01-02T07:53:29.426Z,95804.2
2023-01-02T07:54:31.404Z,95808.5
2023-01-02T07:55:33.944Z,95808.2
2023-01-02T07:56:35.961Z,95812.9
2023-01-02T07:57:37.656Z,95812.8
2023-01-02T07:58:40.172Z,95815.8
2023-01-02T07:59:42.681Z,95816.3
2023-01-02T08:00:45.231Z,95820.1
2023-01-02T08:01:48.149Z,95821.6
2023-01-02T08:02:50.900Z,95824.4
2023-01-02T08:03:53.672Z,95826.4
2023-01-02T08:04:56.039Z,95829.1
2023-01-02T08:05:58.548Z,95822.8
2023-01-02T08:07:01.091Z,95821.4
2023-01-02T08:08:03.677Z,95819.9
2023-01-02T08:09:05.935Z,95828.7
2023-01-02T08:10:08.469Z,95828.7
2023-01-02T08:11:11.032Z,95832.6
2023-01-02T08:12:13.308Z,95837
2023-01-02T08:13:15.824Z,95840.8
2023-01-02T08:15:23.076Z,95838.3
2023-01-02T08:16:25.348Z,95844.1
2023-01-02T08:17:28.060Z,95847.8
2023-01-02T08:18:30.648Z,95838.8
2023-01-02T08:19:33.196Z,95841.4
2023-01-02T08:20:35.697Z,95839.1
2023-01-02T08:21:37.942Z,95837.4
2023-01-02T08:22:40.476Z,95841.7
2023-01-02T08:23:43.017Z,95837.4
2023-01-02T08:24:45.549Z,95836.8
2023-01-02T08:26:54.057Z,95839.5
2023-01-02T08:27:56.570Z,95839.8
2023-01-02T08:28:58.810Z,95840.6
2023-01-02T08:30:01.050Z,95844.7
2023-01-02T08:31:03.844Z,95843.2
2023-01-02T08:32:06.446Z,95844.5
2023-01-02T08:33:09.124Z,95846.6
2023-01-02T08:34:11.693Z,95851.6
2023-01-02T08:35:13.920Z,95852.2
2023-01-02T08:36:16.499Z,95855.9
2023-01-02T08:37:18.730Z,95859.7
2023-01-02T08:38:21.274Z,95863.1
2023-01-02T08:39:23.522Z,95862.3
2023-01-02T08:40:25.999Z,95864.8
2023-01-02T08:41:28.316Z,95865.8
2023-01-02T08:42:30.246Z,95867.9
2023-01-02T08:43:32.782Z,95868.8
2023-01-02T08:44:34.818Z,95869.2
2023-01-02T08:45:36.772Z,95865.9
2023-01-02T08:47:44.259Z,95867.3
2023-01-02T08:48:46.949Z,95866.9
2023-01-02T08:49:49.530Z,95866.5
2023-01-02T08:50:51.340Z,95868.6
2023-01-02T08:51:53.929Z,95869.8
2023-01-02T08:52:56.449Z,95876.4
2023-01-02T08:53:58.960Z,95872.9
2023-01-02T08:55:01.461Z,95864.1
2023-01-02T08:56:03.985Z,95868.8
2023-01-02T08:57:06.209Z,95862.5
2023-01-02T08:58:08.732Z,95866.7
2023-01-02T08:59:11.222Z,95867.2
2023-01-02T09:00:13.758Z,95869.6
2023-01-02T09:01:16.786Z,95863.3
2023-01-02T09:02:20.172Z,95865
2023-01-02T09:03:23.224Z,95867
2023-01-02T09:04:25.923Z,95862.8
2023-01-02T09:05:28.517Z,95865.6
2023-01-02T09:06:31.072Z,95860
2023-01-02T09:07:33.043Z,95864
2023-01-02T09:08:35.570Z,95864.3
2023-01-02T09:09:37.806Z,95865.1
2023-01-02T09:10:40.381Z,95860.7
2023-01-02T09:11:42.376Z,95863.8
2023-01-02T09:12:44.624Z,95865.7
2023-01-02T09:13:47.112Z,95866.4
2023-01-02T09:14:49.631Z,95869.1
2023-01-02T09:15:52.108Z,95869.3
2023-01-02T09:16:54.487Z,95870.2
2023-01-02T09:17:57.046Z,95864.4
2023-01-02T09:18:59.319Z,95867.2
2023-01-02T09:20:01.931Z,95866.5
2023-01-02T09:21:04.622Z,95871.5
2023-01-02T09:22:07.267Z,95866.9
2023-01-02T09:23:09.557Z,95869.6
2023-01-02T09:24:12.112Z,95870
2023-01-02T09:26:21.349Z,95868.6
2023-01-02T09:27:23.922Z,95863
2023-01-02T09:28:26.143Z,95862.8
2023-01-02T09:29:28.664Z,95869.3
2023-01-02T09:30:31.177Z,95866.6
2023-01-02T09:31:34.043Z,95862.6
2023-01-02T09:32:36.050Z,95868.3
2023-01-02T09:33:38.306Z,95867.4
2023-01-02T09:34:40.540Z,95870
2023-01-02T09:35:43.430Z,95870.7
2023-01-02T09:36:46.008Z,95870.9
2023-01-02T09:37:48.262Z,95870.3
2023-01-02T09:38:50.516Z,95868.2
2023-01-02T09:39:53.067Z,95868.7
2023-01-02T09:40:55.621Z,95869.2
2023-01-02T09:41:58.163Z,95869.2
2023-01-02T09:43:00.437Z,95868.9
2023-01-02T09:44:02.726Z,95870.5
2023-01-02T09:46:10.115Z,95874.7
2023-01-02T09:47:12.704Z,95870.5
2023-01-02T09:48:15.248Z,95873
2023-01-02T09:49:17.486Z,95872.5
2023-01-02T09:50:19.975Z,95869.4
2023-01-02T09:51:22.663Z,95874.9
2023-01-02T09:52:25.226Z,95874.9
2023-01-02T09:53:27.160Z,95879.6
2023-01-02T09:54:29.456Z,95882
2023-01-02T09:55:31.757Z,95887
2023-01-02T09:56:35.775Z,95890.7
2023-01-02T09:57:38.267Z,95888.3
2023-01-02T09:58:40.488Z,95885.2
2023-01-02T09:59:43.001Z,95885.5
2023-01-02T10:00:45.247Z,95885.8
2023-01-02T10:01:47.662Z,95877.7
2023-01-02T10:02:50.368Z,95874.5
2023-01-02T10:03:53.546Z,95871.4
2023-01-02T10:04:56.191Z,95870.9
2023-01-02T10:05:58.723Z,95867.9
2023-01-02T10:07:01.048Z,95870.4
2023-01-02T10:08:03.616Z,95871.9
2023-01-02T10:09:05.881Z,95875
2023-01-02T10:10:07.584Z,95874.4
2023-01-02T10:11:10.131Z,95875.4
2023-01-02T10:12:12.099Z,95873.5
2023-01-02T10:13:14.384Z,95868.3
2023-01-02T10:15:21.877Z,95866.8
2023-01-02T10:16:24.555Z,95857.2
2023-01-02T10:17:26.845Z,95851.9
2023-01-02T10:18:29.370Z,95849.7
2023-01-02T10:19:31.915Z,95845.8
2023-01-02T10:20:34.160Z,95842.6
2023-01-02T10:21:36.442Z,95843.7
2023-01-02T10:22:39.045Z,95839.1
2023-01-02T10:23:41.611Z,95845.3
2023-01-02T10:24:43.865Z,95850.2
2023-01-02T10:26:51.105Z,95851.3
2023-01-02T10:27:53.676Z,95846.8
2023-01-02T10:28:55.903Z,95848
2023-01-02T10:29:58.149Z,95847.5
2023-01-02T10:32:05.671Z,95840.2
2023-01-02T10:33:08.468Z,95833
2023-01-02T10:34:10.705Z,95831
2023-01-02T10:35:12.673Z,95828
2023-01-02T10:36:15.184Z,95827.4
2023-01-02T10:37:17.700Z,95826.9
2023-01-02T10:38:20.309Z,95824.5
2023-01-02T10:39:22.745Z,95816
2023-01-02T10:40:25.160Z,95814.9
2023-01-02T10:41:27.240Z,95815.7
2023-01-02T10:42:29.211Z,95816.5
2023-01-02T10:43:31.724Z,95818.4
2023-01-02T10:44:33.439Z,95821.7
2023-01-02T10:45:35.149Z,95814.7
2023-01-02T10:46:37.918Z,95814.7
2023-01-02T10:47:40.506Z,95818.1
2023-01-02T10:49:50.653Z,95830.8
2023-01-02T10:50:52.931Z,95830.4
2023-01-02T10:51:55.178Z,95825.4
2023-01-02T10:52:57.159Z,95826.9
2023-01-02T10:53:59.459Z,95826
2023-01-02T10:55:02.506Z,95825.1
2023-01-02T10:56:04.771Z,95824.5
2023-01-02T10:57:07.295Z,95825.8
2023-01-02T10:58:09.815Z,95832.8
2023-01-02T10:59:12.352Z,95836.8
2023-01-02T11:00:14.883Z,95832.7
2023-01-02T11:01:17.997Z,95834.3
2023-01-02T11:02:21.155Z,95832.7
2023-01-02T11:03:23.576Z,95832.7
2023-01-02T11:04:26.096Z,95827.7
2023-01-02T11:05:28.645Z,95829.9
2023-01-02T11:07:36.156Z,95824.1
2023-01-02T11:08:38.121Z,95825.7
2023-01-02T11:09:40.713Z,95830.8
2023-01-02T11:10:43.355Z,95830.1
2023-01-02T11:11:45.875Z,95831.8
2023-01-02T11:12:48.096Z,95838.3
2023-01-02T11:14:55.596Z,95832.9
2023-01-02T11:15:58.218Z,95827.8
2023-01-02T11:17:00.863Z,95820.1
2023-01-02T11:18:03.409Z,95822.8
2023-01-02T11:19:05.665Z,95833.3
2023-01-02T11:20:07.626Z,95843.5
2023-01-02T11:21:10.132Z,95838.8
2023-01-02T11:22:12.468Z,95830.4
2023-01-02T11:23:14.851Z,95828.1
2023-01-02T11:24:17.096Z,95825.5
2023-01-02T11:25:19.709Z,95825.6
2023-01-02T11:26:22.408Z,95823.7
2023-01-02T11:27:24.914Z,95830.3
2023-01-02T11:28:26.575Z,95829.3
2023-01-02T11:29:28.852Z,95825.2
2023-01-02T11:30:31.148Z,95826.3
2023-01-02T11:31:33.260Z,95820.7
2023-01-02T11:32:36.121Z,95825.4
2023-01-02T11:33:38.907Z,95831.1
2023-01-02T11:34:41.164Z,95831.5
2023-01-02T11:35:43.704Z,95831
2023-01-02T11:36:45.937Z,95831.6
2023-01-02T11:37:48.457Z,95830.2
2023-01-02T11:38:50.982Z,95824.7
2023-01-02T11:39:53.211Z,95825.4
2023-01-02T11:40:55.778Z,95824.5
2023-01-02T11:41:58.371Z,95819.1
2023-01-02T11:43:00.631Z,95824.5
2023-01-02T11:44:03.161Z,95820.7
2023-01-02T11:45:05.782Z,95824.6
2023-01-02T11:46:08.658Z,95822
2023-01-02T11:47:10.397Z,95818.6
2023-01-02T11:48:12.076Z,95820.7
2023-01-02T11:49:14.599Z,95822.2
2023-01-02T11:50:16.931Z,95822
2023-01-02T11:51:19.531Z,95823.3
2023-01-02T11:52:22.059Z,95823
2023-01-02T11:53:24.007Z,95823.9
2023-01-02T11:54:26.278Z,95821.9
2023-01-02T11:55:28.807Z,95828.3
2023-01-02T11:56:30.917Z,95828.7
2023-01-02T11:57:33.479Z,95828.4
2023-01-02T11:58:35.753Z,95827.2
2023-01-02T11:59:38.271Z,95837.7
2023-01-02T12:00:40.549Z,95831.9
2023-01-02T12:01:43.173Z,95833.8
2023-01-02T12:02:46.417Z,95836.2
2023-01-02T12:03:49.527Z,95834.4
2023-01-02T12:04:51.884Z,95835.3
2023-01-02T12:05:53.581Z,95833.5
2023-01-02T12:06:56.098Z,95830
2023-01-02T12:07:58.614Z,95832.6
2023-01-02T12:09:00.846Z,95826.2
2023-01-02T12:10:03.133Z,95824.3
2023-01-02T12:11:05.654Z,95824.5
2023-01-02T12:12:08.236Z,95820.9
2023-01-02T12:13:10.798Z,95822.7
2023-01-02T12:14:13.057Z,95821.8
2023-01-02T12:15:15.561Z,95821
2023-01-02T12:16:18.145Z,95816
2023-01-02T12:17:20.751Z,95820.9
2023-01-02T12:18:23.316Z,95821.3
2023-01-02T12:19:25.577Z,95817.9
2023-01-02T12:20:27.835Z,95823.7
2023-01-02T12:21:30.354Z,95826.1
2023-01-02T12:22:32.863Z,95831.1
2023-01-02T12:23:35.107Z,95832.1
2023-01-02T12:24:37.607Z,95833.2
2023-01-02T12:25:39.582Z,95836.1
2023-01-02T12:26:41.807Z,95838.9
2023-01-02T12:27:44.429Z,95837.6
2023-01-02T12:28:46.717Z,95842.1
2023-01-02T12:29:50.167Z,95842.4
2023-01-02T12:30:52.398Z,95841.6
2023-01-02T12:31:55.228Z,95836.6
2023-01-02T12:32:59.911Z,95832.9
2023-01-02T12:34:02.422Z,95828.6
2023-01-02T12:35:05.113Z,95826.9
2023-01-02T12:36:07.077Z,95824.7
2023-01-02T12:37:09.604Z,95825.9
2023-01-02T12:38:11.860Z,95828.1
2023-01-02T12:39:13.845Z,95829.5
2023-01-02T12:40:16.475Z,95824.6
2023-01-02T12:41:19.023Z,95831.2
2023-01-02T12:42:21.541Z,95833.3
2023-01-02T12:43:24.151Z,95833.2
2023-01-02T12:45:31.742Z,95832.3
2023-01-02T12:46:34.380Z,95833.3
2023-01-02T12:47:36.635Z,95833.3
2023-01-02T12:48:38.348Z,95834.8
2023-01-02T12:49:40.871Z,95830.7
2023-01-02T12:51:48.405Z,95836.9
2023-01-02T12:52:50.924Z,95840.9
2023-01-02T12:54:58.415Z,95842
2023-01-02T12:56:00.937Z,95844.1
2023-01-02T12:57:03.488Z,95846.5
2023-01-02T12:58:05.162Z,95843.4
2023-01-02T12:59:07.669Z,95845.1
2023-01-02T13:00:10.258Z,95845.2
2023-01-02T13:01:12.956Z,95842.6
2023-01-02T13:02:16.701Z,95846.5
2023-01-02T13:04:24.499Z,95851.4
2023-01-02T13:05:26.520Z,95848.3
2023-01-02T13:07:33.457Z,95847.8
2023-01-02T13:08:35.414Z,95851.5